createdAt,value
2022-12-25T00:00:58.905Z,96241.34
2022-12-25T00:02:03.640Z,96245.59
2022-12-25T00:03:08.865Z,96241.31
2022-12-25T00:04:11.001Z,96236.00
2022-12-25T00:05:15.599Z,96237.69
2022-12-25T00:06:17.625Z,96239.47
2022-12-25T00:07:22.146Z,96236.91
2022-12-25T00:08:24.099Z,96238.63
2022-12-25T00:09:28.725Z,96237.81
2022-12-25T00:10:30.631Z,96232.66
2022-12-25T00:11:35.121Z,96230.06
2022-12-25T00:12:37.111Z,96226.59
2022-12-25T00:13:42.113Z,96228.28
2022-12-25T00:14:44.182Z,96226.41
2022-12-25T00:15:48.862Z,96233.22
2022-12-25T00:16:53.430Z,96224.72
2022-12-25T00:17:57.958Z,96232.44
2022-12-25T00:19:02.842Z,96230.75
2022-12-25T00:20:06.106Z,96238.47
2022-12-25T00:21:10.828Z,96224.75
2022-12-25T00:22:12.906Z,96232.44
2022-12-25T00:23:17.401Z,96225.59
2022-12-25T00:24:20.083Z,96232.47
2022-12-25T00:25:24.712Z,96232.44
2022-12-25T00:26:27.857Z,96234.13
2022-12-25T00:27:34.574Z,96237.50
2022-12-25T00:28:36.812Z,96244.31
2022-12-25T00:29:41.788Z,96246.88
2022-12-25T00:30:43.781Z,96240.81
2022-12-25T00:31:48.569Z,96242.56
2022-12-25T00:32:50.698Z,96240.72
2022-12-25T00:33:57.930Z,96240.69
2022-12-25T00:34:59.920Z,96238.88
2022-12-25T00:36:06.275Z,96237.09
2022-12-25T00:37:08.522Z,96229.44
2022-12-25T00:38:13.139Z,96225.13
2022-12-25T00:39:15.104Z,96225.97
2022-12-25T00:40:19.662Z,96224.22
2022-12-25T00:41:38.290Z,96226.75
2022-12-25T00:42:42.925Z,96221.66
2022-12-25T00:43:44.994Z,96226.78
2022-12-25T00:44:50.032Z,96225.84
2022-12-25T00:45:56.472Z,96227.53
2022-12-25T00:47:01.279Z,96231.84
2022-12-25T00:48:03.589Z,96218.19
2022-12-25T00:49:10.832Z,96221.63
2022-12-25T00:50:12.832Z,96216.50
2022-12-25T00:51:17.320Z,96221.63
2022-12-25T00:52:19.235Z,96221.63
2022-12-25T00:53:24.134Z,96216.47
2022-12-25T00:54:26.246Z,96220.72
2022-12-25T00:55:30.853Z,96216.41
2022-12-25T00:56:33.057Z,96218.09
2022-12-25T00:57:37.740Z,96211.25
2022-12-25T00:58:39.650Z,96214.63
2022-12-25T00:59:44.224Z,96218.94
2022-12-25T01:00:47.679Z,96221.44
2022-12-25T01:01:52.542Z,96221.44
2022-12-25T01:02:54.833Z,96230.78
2022-12-25T01:03:59.848Z,96230.78
2022-12-25T01:05:08.396Z,96232.50
2022-12-25T01:06:13.693Z,96232.44
2022-12-25T01:07:19.623Z,96221.25
2022-12-25T01:08:21.634Z,96236.72
2022-12-25T01:09:38.641Z,96231.56
2022-12-25T01:10:44.474Z,96233.25
2022-12-25T01:11:46.609Z,96229.75
2022-12-25T01:12:54.772Z,96228.03
2022-12-25T01:14:08.663Z,96231.47
2022-12-25T01:15:14.995Z,96229.75
2022-12-25T01:16:16.959Z,96221.16
2022-12-25T01:17:21.543Z,96220.28
2022-12-25T01:18:25.184Z,96219.34
2022-12-25T01:19:29.795Z,96216.53
2022-12-25T01:20:35.614Z,96221.53
2022-12-25T01:21:40.588Z,96217.25
2022-12-25T01:22:42.680Z,96226.63
2022-12-25T01:23:47.714Z,96222.84
2022-12-25T01:24:49.899Z,96221.00
2022-12-25T01:25:54.406Z,96220.16
2022-12-25T01:26:56.421Z,96218.53
2022-12-25T01:28:00.965Z,96213.50
2022-12-25T01:29:03.327Z,96225.56
2022-12-25T01:30:09.589Z,96217.00
2022-12-25T01:31:15.027Z,96217.69
2022-12-25T01:32:19.570Z,96220.16
2022-12-25T01:33:24.164Z,96224.50
2022-12-25T01:34:26.315Z,96225.28
2022-12-25T01:35:30.963Z,96226.84
2022-12-25T01:36:35.539Z,96223.47
2022-12-25T01:37:40.075Z,96220.88
2022-12-25T01:38:42.553Z,96229.41
2022-12-25T01:39:47.087Z,96225.94
2022-12-25T01:40:49.039Z,96233.78
2022-12-25T01:41:53.790Z,96230.44
2022-12-25T01:42:56.022Z,96228.63
2022-12-25T01:44:07.999Z,96238.06
2022-12-25T01:45:35.187Z,96238.75
2022-12-25T01:46:39.733Z,96236.31
2022-12-25T01:47:41.720Z,96238.94
2022-12-25T01:48:46.470Z,96231.31
2022-12-25T01:49:51.091Z,96235.63
2022-12-25T01:50:59.850Z,96233.91
2022-12-25T01:52:10.816Z,96233.16
2022-12-25T01:53:15.955Z,96230.63
2022-12-25T01:54:21.951Z,96231.53
2022-12-25T01:55:27.034Z,96228.94
2022-12-25T01:56:30.232Z,96235.00
2022-12-25T01:57:37.436Z,96241.03
2022-12-25T01:58:39.799Z,96241.03
2022-12-25T01:59:44.676Z,96230.72
2022-12-25T02:00:46.774Z,96238.47
2022-12-25T02:01:52.082Z,96238.47
2022-12-25T02:02:54.452Z,96235.06
2022-12-25T02:04:05.871Z,96238.47
2022-12-25T02:05:12.329Z,96237.63
2022-12-25T02:06:17.033Z,96234.22
2022-12-25T02:07:23.940Z,96234.19
2022-12-25T02:08:28.855Z,96234.22
2022-12-25T02:09:30.787Z,96238.44
2022-12-25T02:10:35.450Z,96228.94
2022-12-25T02:11:54.786Z,96235.78
2022-12-25T02:12:59.509Z,96236.66
2022-12-25T02:14:01.953Z,96231.50
2022-12-25T02:15:10.934Z,96232.34
2022-12-25T02:16:21.093Z,96228.84
2022-12-25T02:17:33.851Z,96230.44
2022-12-25T02:18:41.825Z,96235.59
2022-12-25T02:20:06.199Z,96234.72
2022-12-25T02:21:32.566Z,96233.84
2022-12-25T02:22:47.739Z,96235.50
2022-12-25T02:24:16.213Z,96234.66
2022-12-25T02:25:38.171Z,96228.59
2022-12-25T02:26:57.552Z,96232.91
2022-12-25T02:28:14.309Z,96227.69
2022-12-25T02:29:24.341Z,96228.53
2022-12-25T02:30:28.651Z,96220.88
2022-12-25T02:31:41.566Z,96230.34
2022-12-25T02:32:50.359Z,96233.59
2022-12-25T02:34:08.022Z,96228.44
2022-12-25T02:35:15.437Z,96230.22
2022-12-25T02:36:26.868Z,96228.53
2022-12-25T02:37:35.667Z,96233.69
2022-12-25T02:39:04.272Z,96233.69
2022-12-25T02:40:40.574Z,96235.38
2022-12-25T02:41:48.140Z,96235.38
2022-12-25T02:43:09.736Z,96232.81
2022-12-25T02:44:33.703Z,96240.44
2022-12-25T02:45:56.497Z,96236.94
2022-12-25T02:47:13.889Z,96228.28
2022-12-25T02:48:38.479Z,96230.00
2022-12-25T02:49:58.038Z,96230.00
2022-12-25T02:51:20.177Z,96219.69
2022-12-25T02:52:39.278Z,96217.22
2022-12-25T02:53:57.918Z,96219.81
2022-12-25T02:55:18.434Z,96218.91
2022-12-25T02:56:37.363Z,96214.66
2022-12-25T02:58:01.407Z,96212.88
2022-12-25T02:59:19.862Z,96218.03
2022-12-25T03:00:39.783Z,96210.94
2022-12-25T03:01:58.556Z,96198.03
2022-12-25T03:03:27.017Z,96204.00
2022-12-25T03:04:45.956Z,96206.69
2022-12-25T03:06:04.243Z,96209.28
2022-12-25T03:07:12.816Z,96209.28
2022-12-25T03:08:22.969Z,96209.28
2022-12-25T03:09:44.214Z,96214.44
2022-12-25T03:11:11.057Z,96217.81
2022-12-25T03:12:20.970Z,96214.44
2022-12-25T03:13:27.821Z,96220.44
2022-12-25T03:14:44.959Z,96222.06
2022-12-25T03:16:05.567Z,96225.53
2022-12-25T03:17:10.280Z,96226.34
2022-12-25T03:18:16.239Z,96221.19
2022-12-25T03:19:34.517Z,96216.97
2022-12-25T03:20:53.288Z,96212.69
2022-12-25T03:22:11.466Z,96212.75
2022-12-25T03:23:30.525Z,96207.59
2022-12-25T03:24:47.626Z,96210.94
2022-12-25T03:26:04.453Z,96203.31
2022-12-25T03:27:09.183Z,96193.94
2022-12-25T03:28:11.174Z,96198.25
2022-12-25T03:29:36.439Z,96193.94
2022-12-25T03:30:59.931Z,96192.16
2022-12-25T03:32:15.550Z,96187.94
2022-12-25T03:33:44.437Z,96192.25
2022-12-25T03:35:08.228Z,96192.28
2022-12-25T03:36:19.705Z,96188.88
2022-12-25T03:37:48.790Z,96188.88
2022-12-25T03:39:16.075Z,96195.81
2022-12-25T03:40:41.869Z,96198.41
2022-12-25T03:42:03.233Z,96194.06
2022-12-25T03:43:30.256Z,96195.03
2022-12-25T03:44:54.823Z,96198.47
2022-12-25T03:46:17.848Z,96192.44
2022-12-25T03:47:43.365Z,96197.56
2022-12-25T03:49:06.451Z,96185.47
2022-12-25T03:50:31.962Z,96183.84
2022-12-25T03:51:51.636Z,96185.56
2022-12-25T03:53:10.930Z,96193.41
2022-12-25T03:54:30.942Z,96184.06
2022-12-25T03:55:54.856Z,96184.94
2022-12-25T03:57:12.868Z,96189.31
2022-12-25T03:58:34.003Z,96189.31
2022-12-25T03:59:51.066Z,96186.81
2022-12-25T04:01:08.588Z,96191.91
2022-12-25T04:02:25.793Z,96182.41
2022-12-25T04:03:45.591Z,96192.78
2022-12-25T04:05:02.642Z,96193.59
2022-12-25T04:06:20.074Z,96197.06
2022-12-25T04:07:37.137Z,96196.16
2022-12-25T04:08:54.211Z,96200.47
2022-12-25T04:10:11.217Z,96196.06
2022-12-25T04:11:28.284Z,96198.59
2022-12-25T04:12:45.331Z,96190.88
2022-12-25T04:14:02.325Z,96198.56
2022-12-25T04:15:19.789Z,96190.88
2022-12-25T04:16:36.747Z,96184.56
2022-12-25T04:17:53.798Z,96188.03
2022-12-25T04:19:13.379Z,96181.16
2022-12-25T04:20:30.981Z,96175.09
2022-12-25T04:21:48.081Z,96182.88
2022-12-25T04:23:05.069Z,96178.69
2022-12-25T04:24:22.817Z,96176.97
2022-12-25T04:25:39.802Z,96171.75
2022-12-25T04:26:56.814Z,96170.97
2022-12-25T04:28:16.475Z,96173.53
2022-12-25T04:29:33.547Z,96169.44
2022-12-25T04:30:50.609Z,96168.41
2022-12-25T04:32:07.680Z,96171.06
2022-12-25T04:33:24.809Z,96166.88
2022-12-25T04:34:44.955Z,96170.38
2022-12-25T04:36:02.940Z,96161.84
2022-12-25T04:37:07.592Z,96160.22
2022-12-25T04:38:09.688Z,96154.28
2022-12-25T04:39:14.553Z,96149.19
2022-12-25T04:40:16.896Z,96146.66
2022-12-25T04:41:21.420Z,96138.16
2022-12-25T04:42:23.408Z,96136.50
2022-12-25T04:43:28.088Z,96145.81
2022-12-25T04:44:30.062Z,96139.97
2022-12-25T04:45:34.601Z,96151.22
2022-12-25T04:46:36.643Z,96152.13
2022-12-25T04:47:41.307Z,96140.16
2022-12-25T04:48:43.494Z,96146.19
2022-12-25T04:49:50.611Z,96153.06
2022-12-25T04:50:53.059Z,96147.97
2022-12-25T04:51:57.617Z,96147.03
2022-12-25T04:52:59.599Z,96153.03
2022-12-25T04:54:04.301Z,96152.13
2022-12-25T04:55:07.466Z,96156.34
2022-12-25T04:56:12.126Z,96163.94
2022-12-25T04:57:14.213Z,96154.59
2022-12-25T04:58:18.826Z,96158.78
2022-12-25T04:59:20.772Z,96157.13
2022-12-25T05:00:25.499Z,96154.38
2022-12-25T05:01:30.933Z,96146.72
2022-12-25T05:02:36.115Z,96161.25
2022-12-25T05:03:40.050Z,96151.91
2022-12-25T05:04:44.804Z,96155.34
2022-12-25T05:05:49.387Z,96152.81
2022-12-25T05:06:55.088Z,96151.28
2022-12-25T05:07:57.755Z,96157.50
2022-12-25T05:09:02.336Z,96156.75
2022-12-25T05:10:04.834Z,96149.13
2022-12-25T05:11:11.246Z,96151.88
2022-12-25T05:12:13.749Z,96153.84
2022-12-25T05:13:18.286Z,96150.38
2022-12-25T05:14:20.287Z,96150.25
2022-12-25T05:15:24.984Z,96151.25
2022-12-25T05:16:27.226Z,96153.13
2022-12-25T05:17:32.385Z,96154.91
2022-12-25T05:18:34.604Z,96156.47
2022-12-25T05:19:39.150Z,96153.97
2022-12-25T05:20:41.168Z,96156.66
2022-12-25T05:21:48.302Z,96157.81
2022-12-25T05:22:50.312Z,96153.72
2022-12-25T05:23:55.910Z,96148.63
2022-12-25T05:24:57.922Z,96148.69
2022-12-25T05:26:06.053Z,96142.56
2022-12-25T05:27:08.015Z,96143.31
2022-12-25T05:28:12.852Z,96140.75
2022-12-25T05:29:14.835Z,96143.41
2022-12-25T05:30:19.592Z,96149.41
2022-12-25T05:31:22.388Z,96145.94
2022-12-25T05:32:27.085Z,96140.00
2022-12-25T05:33:29.042Z,96137.41
2022-12-25T05:34:33.644Z,96143.31
2022-12-25T05:35:36.878Z,96136.28
2022-12-25T05:36:41.594Z,96135.34
2022-12-25T05:37:46.302Z,96136.19
2022-12-25T05:38:51.095Z,96129.34
2022-12-25T05:39:53.039Z,96125.88
2022-12-25T05:40:57.596Z,96131.03
2022-12-25T05:42:00.553Z,96130.91
2022-12-25T05:43:05.169Z,96133.41
2022-12-25T05:44:07.238Z,96131.69
2022-12-25T05:45:13.240Z,96130.72
2022-12-25T05:46:15.328Z,96133.28
2022-12-25T05:47:20.031Z,96133.25
2022-12-25T05:48:21.991Z,96130.63
2022-12-25T05:49:26.785Z,96124.63
2022-12-25T05:50:29.006Z,96121.16
2022-12-25T05:51:33.575Z,96125.38
2022-12-25T05:52:35.951Z,96123.56
2022-12-25T05:53:44.820Z,96127.00
2022-12-25T05:54:46.799Z,96128.72
2022-12-25T05:55:51.370Z,96127.97
2022-12-25T05:56:53.400Z,96115.91
2022-12-25T05:57:58.014Z,96122.69
2022-12-25T05:59:00.145Z,96120.13
2022-12-25T06:00:04.745Z,96116.59
2022-12-25T06:01:12.052Z,96115.66
2022-12-25T06:02:16.688Z,96109.38
2022-12-25T06:03:18.818Z,96106.69
2022-12-25T06:04:23.471Z,96099.75
2022-12-25T06:05:25.604Z,96095.50
2022-12-25T06:06:30.487Z,96100.66
2022-12-25T06:07:32.525Z,96093.88
2022-12-25T06:08:37.273Z,96099.03
2022-12-25T06:09:42.728Z,96100.34
2022-12-25T06:10:47.418Z,96095.06
2022-12-25T06:11:49.399Z,96095.97
2022-12-25T06:12:53.977Z,96094.22
2022-12-25T06:13:56.937Z,96098.56
2022-12-25T06:15:01.567Z,96099.38
2022-12-25T06:16:05.388Z,96096.69
2022-12-25T06:17:10.053Z,96091.47
2022-12-25T06:18:12.037Z,96096.59
2022-12-25T06:19:16.659Z,96099.88
2022-12-25T06:20:18.792Z,96096.44
2022-12-25T06:21:23.321Z,96097.19
2022-12-25T06:22:28.846Z,96093.66
2022-12-25T06:23:33.780Z,96097.16
2022-12-25T06:24:36.112Z,96096.19
2022-12-25T06:25:44.010Z,96099.66
2022-12-25T06:26:46.091Z,96098.81
2022-12-25T06:27:50.669Z,96088.34
2022-12-25T06:28:53.611Z,96093.44
2022-12-25T06:29:58.786Z,96095.97
2022-12-25T06:31:06.619Z,96095.84
2022-12-25T06:32:11.200Z,96094.19
2022-12-25T06:33:13.519Z,96096.75
2022-12-25T06:34:18.675Z,96100.91
2022-12-25T06:35:20.756Z,96100.78
2022-12-25T06:36:27.458Z,96098.09
2022-12-25T06:37:29.489Z,96085.94
2022-12-25T06:38:34.151Z,96085.00
2022-12-25T06:39:38.865Z,96093.44
2022-12-25T06:40:43.457Z,96095.06
2022-12-25T06:41:48.011Z,96087.34
2022-12-25T06:42:49.969Z,96091.66
2022-12-25T06:43:56.318Z,96088.22
2022-12-25T06:44:58.274Z,96088.22
2022-12-25T06:46:06.501Z,96081.97
2022-12-25T06:47:08.494Z,96089.78
2022-12-25T06:48:13.247Z,96094.94
2022-12-25T06:49:15.207Z,96084.56
2022-12-25T06:50:20.008Z,96084.50
2022-12-25T06:51:23.988Z,96087.09
2022-12-25T06:52:28.607Z,96082.84
2022-12-25T06:53:37.143Z,96083.59
2022-12-25T06:54:44.611Z,96087.88
2022-12-25T06:55:49.187Z,96085.09
2022-12-25T06:56:53.816Z,96086.84
2022-12-25T06:57:55.704Z,96097.19
2022-12-25T06:59:01.866Z,96094.59
2022-12-25T07:00:05.104Z,96093.59
2022-12-25T07:01:15.465Z,96098.75
2022-12-25T07:02:21.972Z,96095.31
2022-12-25T07:03:29.274Z,96101.38
2022-12-25T07:04:35.842Z,96099.63
2022-12-25T07:05:40.407Z,96098.75
2022-12-25T07:06:42.509Z,96092.66
2022-12-25T07:07:47.097Z,96086.59
2022-12-25T07:08:49.062Z,96089.09
2022-12-25T07:09:53.640Z,96098.47
2022-12-25T07:10:58.390Z,96100.16
2022-12-25T07:12:07.232Z,96102.78
2022-12-25T07:13:09.271Z,96104.50
2022-12-25T07:14:23.723Z,96105.25
2022-12-25T07:15:29.131Z,96104.38
2022-12-25T07:16:31.326Z,96099.81
2022-12-25T07:17:38.438Z,96099.97
2022-12-25T07:18:41.286Z,96106.84
2022-12-25T07:19:45.981Z,96107.72
2022-12-25T07:20:48.016Z,96101.72
2022-12-25T07:21:52.588Z,96112.00
2022-12-25T07:22:54.607Z,96106.75
2022-12-25T07:23:59.249Z,96117.91
2022-12-25T07:25:01.224Z,96112.75
2022-12-25T07:26:09.209Z,96112.75
2022-12-25T07:27:11.134Z,96116.13
2022-12-25T07:28:15.663Z,96122.97
2022-12-25T07:29:17.676Z,96134.84
2022-12-25T07:30:22.337Z,96126.31
2022-12-25T07:31:24.590Z,96129.81
2022-12-25T07:32:32.548Z,96121.16
2022-12-25T07:33:34.589Z,96124.53
2022-12-25T07:34:39.404Z,96113.28
2022-12-25T07:35:41.398Z,96113.28
2022-12-25T07:36:46.306Z,96111.59
2022-12-25T07:37:48.259Z,96110.72
2022-12-25T07:38:53.144Z,96115.03
2022-12-25T07:39:55.153Z,96115.16
2022-12-25T07:40:59.985Z,96116.91
2022-12-25T07:42:04.746Z,96110.97
2022-12-25T07:43:09.363Z,96111.78
2022-12-25T07:44:11.428Z,96120.44
2022-12-25T07:45:16.083Z,96114.44
2022-12-25T07:46:18.807Z,96112.75
2022-12-25T07:47:23.383Z,96108.56
2022-12-25T07:48:25.988Z,96108.56
2022-12-25T07:49:30.609Z,96109.41
2022-12-25T07:50:32.772Z,96110.25
2022-12-25T07:51:37.485Z,96106.84
2022-12-25T07:52:43.476Z,96104.25
2022-12-25T07:53:49.123Z,96100.75
2022-12-25T07:54:51.567Z,96101.59
2022-12-25T07:56:00.709Z,96110.97
2022-12-25T07:57:07.882Z,96112.66
2022-12-25T07:58:09.822Z,96104.91
2022-12-25T07:59:14.424Z,96102.34
2022-12-25T08:00:17.979Z,96104.84
2022-12-25T08:01:25.631Z,96105.69
2022-12-25T08:02:29.193Z,96102.25
2022-12-25T08:03:34.334Z,96108.25
2022-12-25T08:04:39.048Z,96105.69
2022-12-25T08:05:40.994Z,96107.38
2022-12-25T08:06:45.593Z,96114.31
2022-12-25T08:07:52.410Z,96103.16
2022-12-25T08:09:00.871Z,96097.19
2022-12-25T08:10:03.309Z,96094.66
2022-12-25T08:11:09.836Z,96093.81
2022-12-25T08:12:14.652Z,96096.38
2022-12-25T08:13:19.197Z,96092.06
2022-12-25T08:14:21.508Z,96096.25
2022-12-25T08:15:26.072Z,96091.16
2022-12-25T08:16:30.801Z,96093.69
2022-12-25T08:17:35.213Z,96086.00
2022-12-25T08:18:41.364Z,96093.69
2022-12-25T08:19:43.330Z,96092.78
2022-12-25T08:20:47.850Z,96089.31
2022-12-25T08:21:49.841Z,96087.50
2022-12-25T08:22:54.421Z,96094.34
2022-12-25T08:23:56.462Z,96081.38
2022-12-25T08:25:01.024Z,96082.16
2022-12-25T08:26:05.736Z,96087.16
2022-12-25T08:27:10.731Z,96089.72
2022-12-25T08:28:15.337Z,96087.91
2022-12-25T08:29:20.008Z,96093.84
2022-12-25T08:30:22.038Z,96097.16
2022-12-25T08:31:29.117Z,96104.72
2022-12-25T08:32:33.684Z,96103.72
2022-12-25T08:33:39.005Z,96097.47
2022-12-25T08:34:41.013Z,96099.84
2022-12-25T08:35:45.646Z,96104.75
2022-12-25T08:36:47.766Z,96107.94
2022-12-25T08:37:52.458Z,96103.47
2022-12-25T08:39:02.154Z,96097.22
2022-12-25T08:40:09.627Z,96094.47
2022-12-25T08:41:12.516Z,96087.47
2022-12-25T08:42:17.559Z,96077.00
2022-12-25T08:43:22.087Z,96079.47
2022-12-25T08:44:26.730Z,96078.47
2022-12-25T08:45:34.797Z,96082.69
2022-12-25T08:46:40.630Z,96086.84
2022-12-25T08:47:42.794Z,96085.72
2022-12-25T08:48:48.973Z,96084.69
2022-12-25T08:49:50.956Z,96075.81
2022-12-25T08:50:56.348Z,96073.97
2022-12-25T08:51:58.721Z,96078.91
2022-12-25T08:53:03.321Z,96084.81
2022-12-25T08:54:08.051Z,96093.13
2022-12-25T08:55:10.342Z,96083.44
2022-12-25T08:56:16.493Z,96083.16
2022-12-25T08:57:18.570Z,96083.03
2022-12-25T08:58:25.748Z,96081.91
2022-12-25T08:59:27.746Z,96075.63
2022-12-25T09:00:32.462Z,96082.25
2022-12-25T09:01:34.622Z,96076.75
2022-12-25T09:02:39.435Z,96075.50
2022-12-25T09:03:42.065Z,96076.88
2022-12-25T09:04:48.096Z,96063.44
2022-12-25T09:05:50.058Z,96059.22
2022-12-25T09:06:54.694Z,96065.19
2022-12-25T09:07:56.630Z,96053.00
2022-12-25T09:09:01.455Z,96052.91
2022-12-25T09:10:03.742Z,96053.66
2022-12-25T09:11:10.718Z,96060.53
2022-12-25T09:12:12.763Z,96065.00
2022-12-25T09:13:17.750Z,96065.09
2022-12-25T09:14:22.295Z,96065.28
2022-12-25T09:15:26.867Z,96062.97
2022-12-25T09:16:28.873Z,96062.41
2022-12-25T09:17:33.725Z,96065.59
2022-12-25T09:18:36.248Z,96066.91
2022-12-25T09:19:40.837Z,96068.28
2022-12-25T09:20:42.740Z,96062.41
2022-12-25T09:21:47.305Z,96061.91
2022-12-25T09:22:49.373Z,96051.53
2022-12-25T09:23:53.924Z,96056.19
2022-12-25T09:24:55.953Z,96044.78
2022-12-25T09:26:01.248Z,96043.56
2022-12-25T09:27:03.474Z,96041.03
2022-12-25T09:28:08.121Z,96031.63
2022-12-25T09:29:10.093Z,96024.69
2022-12-25T09:30:17.704Z,96014.44
2022-12-25T09:31:23.276Z,96011.22
2022-12-25T09:32:25.282Z,96007.63
2022-12-25T09:33:30.082Z,96002.47
2022-12-25T09:34:32.079Z,95999.88
2022-12-25T09:35:37.029Z,95996.09
2022-12-25T09:36:39.015Z,95994.28
2022-12-25T09:37:44.377Z,95984.44
2022-12-25T09:38:46.315Z,95981.31
2022-12-25T09:39:51.039Z,95976.00
2022-12-25T09:40:59.857Z,95975.28
2022-12-25T09:42:10.398Z,95978.91
2022-12-25T09:43:17.649Z,95979.28
2022-12-25T09:44:25.916Z,95978.81
2022-12-25T09:45:38.036Z,95983.28
2022-12-25T09:46:47.541Z,95994.53
2022-12-25T09:47:57.847Z,95997.69
2022-12-25T09:49:05.514Z,95999.19
2022-12-25T09:50:15.162Z,96004.72
2022-12-25T09:51:18.653Z,96006.94
2022-12-25T09:52:28.818Z,95991.59
2022-12-25T09:53:38.008Z,95985.72
2022-12-25T09:54:52.556Z,95988.69
2022-12-25T09:56:04.198Z,95990.44
2022-12-25T09:57:08.767Z,95988.50
2022-12-25T09:58:13.131Z,95996.25
2022-12-25T09:59:25.677Z,95990.34
2022-12-25T10:00:36.362Z,95995.16
2022-12-25T10:01:58.937Z,95992.28
2022-12-25T10:03:15.822Z,96003.03
2022-12-25T10:04:39.080Z,95998.72
2022-12-25T10:06:13.302Z,96004.16
2022-12-25T10:07:26.408Z,95995.59
2022-12-25T10:08:50.634Z,95992.44
2022-12-25T10:10:05.959Z,95978.03
2022-12-25T10:11:22.122Z,95972.81
2022-12-25T10:12:41.521Z,95956.94
2022-12-25T10:14:00.601Z,95965.06
2022-12-25T10:15:17.136Z,95962.16
2022-12-25T10:16:32.967Z,95978.00
2022-12-25T10:17:50.329Z,95981.97
2022-12-25T10:19:03.482Z,95988.38
2022-12-25T10:20:18.658Z,96001.13
2022-12-25T10:21:22.584Z,96005.44
2022-12-25T10:22:34.490Z,96014.28
2022-12-25T10:23:40.744Z,96000.72
2022-12-25T10:24:50.252Z,96012.16
2022-12-25T10:25:53.885Z,95992.13
2022-12-25T10:26:59.911Z,95998.19
2022-12-25T10:28:10.175Z,96004.63
2022-12-25T10:29:19.589Z,96001.13
2022-12-25T10:30:23.603Z,95993.00
2022-12-25T10:31:34.668Z,95981.16
2022-12-25T10:32:38.267Z,95990.00
2022-12-25T10:33:42.879Z,95990.25
2022-12-25T10:34:45.024Z,95980.53
2022-12-25T10:35:49.690Z,95980.69
2022-12-25T10:36:52.371Z,95993.25
2022-12-25T10:38:01.397Z,95989.09
2022-12-25T10:39:03.733Z,95966.88
2022-12-25T10:40:31.101Z,95978.91
2022-12-25T10:41:48.679Z,95978.69
2022-12-25T10:42:58.453Z,95964.38
2022-12-25T10:44:00.963Z,95963.97
2022-12-25T10:45:09.244Z,95966.53
2022-12-25T10:46:12.890Z,95979.66
2022-12-25T10:47:27.325Z,95978.44
2022-12-25T10:48:31.550Z,95971.22
2022-12-25T10:49:38.296Z,95962.34
2022-12-25T10:50:43.181Z,95957.94
2022-12-25T10:51:47.862Z,95957.66
2022-12-25T10:52:56.294Z,95955.72
2022-12-25T10:54:01.863Z,95969.59
2022-12-25T10:55:11.779Z,95966.47
2022-12-25T10:56:20.978Z,95969.13
2022-12-25T10:57:24.195Z,95977.97
2022-12-25T10:58:29.174Z,95965.69
2022-12-25T10:59:35.888Z,95953.00
2022-12-25T11:00:40.507Z,95966.25
2022-12-25T11:01:42.789Z,95968.81
2022-12-25T11:02:50.347Z,95964.28
2022-12-25T11:03:52.888Z,95965.41
2022-12-25T11:05:05.172Z,95972.53
2022-12-25T11:06:21.525Z,95960.16
2022-12-25T11:07:29.024Z,95958.13
2022-12-25T11:08:33.138Z,95947.13
2022-12-25T11:09:38.726Z,95954.16
2022-12-25T11:10:42.271Z,95946.16
2022-12-25T11:11:50.827Z,95947.84
2022-12-25T11:12:54.075Z,95948.44
2022-12-25T11:14:01.536Z,95955.25
2022-12-25T11:15:08.325Z,95956.44
2022-12-25T11:16:17.068Z,95953.22
2022-12-25T11:17:23.031Z,95960.03
2022-12-25T11:18:32.190Z,95947.66
2022-12-25T11:19:34.547Z,95950.22
2022-12-25T11:20:45.374Z,95937.88
2022-12-25T11:21:52.144Z,95937.00
2022-12-25T11:22:56.651Z,95939.88
2022-12-25T11:24:00.492Z,95941.09
2022-12-25T11:25:15.461Z,95939.91
2022-12-25T11:26:18.535Z,95938.31
2022-12-25T11:27:28.648Z,95927.31
2022-12-25T11:28:32.958Z,95930.88
2022-12-25T11:29:44.575Z,95923.94
2022-12-25T11:30:49.618Z,95917.03
2022-12-25T11:31:56.046Z,95918.06
2022-12-25T11:33:01.320Z,95920.88
2022-12-25T11:34:13.386Z,95917.91
2022-12-25T11:35:18.188Z,95920.22
2022-12-25T11:36:29.453Z,95917.41
2022-12-25T11:37:37.654Z,95916.63
2022-12-25T11:38:42.162Z,95925.34
2022-12-25T11:39:44.361Z,95912.75
2022-12-25T11:40:52.679Z,95921.78
2022-12-25T11:41:59.534Z,95919.31
2022-12-25T11:43:11.931Z,95916.75
2022-12-25T11:44:26.767Z,95911.22
2022-12-25T11:45:36.047Z,95919.81
2022-12-25T11:46:42.464Z,95924.13
2022-12-25T11:47:50.083Z,95920.38
2022-12-25T11:48:56.365Z,95922.91
2022-12-25T11:50:06.241Z,95920.78
2022-12-25T11:51:10.087Z,95916.44
2022-12-25T11:52:16.322Z,95907.56
2022-12-25T11:53:25.448Z,95914.78
2022-12-25T11:54:32.726Z,95904.69
2022-12-25T11:55:42.547Z,95905.34
2022-12-25T11:56:44.587Z,95901.44
2022-12-25T11:57:57.605Z,95899.53
2022-12-25T11:59:03.968Z,95902.81
2022-12-25T12:00:11.381Z,95897.59
2022-12-25T12:01:19.502Z,95897.09
2022-12-25T12:02:32.201Z,95899.66
2022-12-25T12:03:37.877Z,95898.56
2022-12-25T12:04:46.484Z,95894.75
2022-12-25T12:05:56.043Z,95895.09
2022-12-25T12:07:06.691Z,95893.09
2022-12-25T12:08:10.595Z,95889.81
2022-12-25T12:09:29.619Z,95890.91
2022-12-25T12:10:57.036Z,95891.91
2022-12-25T12:12:06.637Z,95890.03
2022-12-25T12:13:29.995Z,95892.16
2022-12-25T12:14:43.617Z,95880.97
2022-12-25T12:15:50.539Z,95882.34
2022-12-25T12:16:55.182Z,95883.47
2022-12-25T12:18:08.887Z,95880.13
2022-12-25T12:19:14.939Z,95878.19
2022-12-25T12:20:29.145Z,95880.25
2022-12-25T12:21:36.316Z,95874.59
2022-12-25T12:22:39.045Z,95876.13
2022-12-25T12:23:54.417Z,95868.50
2022-12-25T12:25:03.446Z,95865.94
2022-12-25T12:26:05.822Z,95869.25
2022-12-25T12:27:25.001Z,95867.59
2022-12-25T12:28:29.883Z,95869.66
2022-12-25T12:29:42.338Z,95866.84
2022-12-25T12:30:44.315Z,95858.72
2022-12-25T12:31:53.187Z,95849.53
2022-12-25T12:33:01.302Z,95842.34
2022-12-25T12:34:03.523Z,95839.00
2022-12-25T12:35:12.078Z,95833.72
2022-12-25T12:36:15.021Z,95833.28
2022-12-25T12:37:32.024Z,95830.06
2022-12-25T12:38:35.471Z,95825.91
2022-12-25T12:39:43.163Z,95825.19
2022-12-25T12:40:54.634Z,95816.06
2022-12-25T12:41:59.293Z,95810.19
2022-12-25T12:43:02.443Z,95811.25
2022-12-25T12:44:08.360Z,95807.84
2022-12-25T12:45:16.696Z,95815.50
2022-12-25T12:46:30.089Z,95810.41
2022-12-25T12:47:39.059Z,95820.56
2022-12-25T12:48:45.916Z,95816.88
2022-12-25T12:49:57.919Z,95809.81
2022-12-25T12:51:06.835Z,95808.63
2022-12-25T12:52:33.871Z,95806.25
2022-12-25T12:53:38.423Z,95805.91
2022-12-25T12:54:57.619Z,95803.75
2022-12-25T12:56:13.330Z,95810.31
2022-12-25T12:57:27.019Z,95812.59
2022-12-25T12:58:33.737Z,95816.69
2022-12-25T12:59:43.671Z,95816.25
2022-12-25T13:00:58.620Z,95819.19
2022-12-25T13:02:15.561Z,95823.34
2022-12-25T13:03:31.832Z,95831.25
2022-12-25T13:04:54.148Z,95833.75
2022-12-25T13:06:01.016Z,95854.06
2022-12-25T13:07:13.812Z,95849.53
2022-12-25T13:08:33.627Z,95856.00
2022-12-25T13:09:55.094Z,95857.91
2022-12-25T13:11:08.552Z,95846.56
2022-12-25T13:12:15.626Z,95835.81
2022-12-25T13:13:25.020Z,95848.41
2022-12-25T13:14:27.573Z,95846.63
2022-12-25T13:15:36.061Z,95848.53
2022-12-25T13:16:41.977Z,95846.38
2022-12-25T13:17:48.734Z,95843.09